createdAt,value
2024-04-14T00:00:00.434Z,205
2024-04-14T00:10:00.491Z,188
2024-04-14T00:20:00.843Z,192
2024-04-14T00:30:00.462Z,159
2024-04-14T00:40:00.421Z,196
2024-04-14T00:50:00.630Z,199
2024-04-14T01:00:00.457Z,172
2024-04-14T01:10:00.432Z,205
2024-04-14T01:20:00.409Z,179
2024-04-14T01:30:00.568Z,178
2024-04-14T01:40:00.505Z,186
2024-04-14T01:50:00.374Z,187
2024-04-14T02:00:00.605Z,189
2024-04-14T02:10:00.598Z,186
2024-04-14T02:20:00.549Z,208
2024-04-14T02:30:00.415Z,147
2024-04-14T02:40:00.452Z,174
2024-04-14T02:50:00.410Z,178
2024-04-14T03:00:00.380Z,85
2024-04-14T03:10:00.454Z,136
2024-04-14T03:20:00.407Z,171
2024-04-14T03:30:00.483Z,149
2024-04-14T03:40:00.434Z,171
2024-04-14T03:50:00.412Z,152
2024-04-14T04:00:00.372Z,163
2024-04-14T04:10:00.468Z,222
2024-04-14T04:20:00.505Z,263
2024-04-14T04:30:00.475Z,268
2024-04-14T04:40:00.551Z,213
2024-04-14T04:50:00.410Z,281
2024-04-14T05:00:00.428Z,201
2024-04-14T05:10:00.670Z,165
2024-04-14T05:20:00.460Z,161
2024-04-14T05:30:00.481Z,228
2024-04-14T05:40:00.427Z,140
2024-04-14T05:50:01.766Z,140
2024-04-14T06:00:00.467Z,151
2024-04-14T06:10:00.556Z,172
2024-04-14T06:20:00.451Z,174
2024-04-14T06:30:00.420Z,181
2024-04-14T06:40:00.406Z,155
2024-04-14T06:50:00.671Z,133
2024-04-14T07:00:00.428Z,100
2024-04-14T07:10:00.459Z,103
2024-04-14T07:20:00.447Z,105
2024-04-14T07:30:00.393Z,122
2024-04-14T07:40:00.448Z,135
2024-04-14T07:50:00.437Z,121
2024-04-14T08:00:00.385Z,126
2024-04-14T08:10:00.672Z,126
2024-04-14T08:20:00.374Z,145
2024-04-14T08:30:00.405Z,126
2024-04-14T08:40:00.974Z,161
2024-04-14T08:50:00.451Z,191
2024-04-14T09:00:00.692Z,150
2024-04-14T09:10:00.426Z,158
2024-04-14T09:20:00.379Z,179
2024-04-14T09:30:00.408Z,199
2024-04-14T09:40:00.469Z,202
2024-04-14T09:50:00.426Z,201
2024-04-14T10:00:00.606Z,184
2024-04-14T10:10:00.603Z,185
2024-04-14T10:20:00.435Z,179
2024-04-14T10:30:00.388Z,162
2024-04-14T10:40:00.424Z,151
2024-04-14T10:50:00.371Z,162
2024-04-14T11:00:00.408Z,179
2024-04-14T11:10:00.568Z,128
2024-04-14T11:20:00.395Z,155
2024-04-14T11:30:00.441Z,146
2024-04-14T11:40:00.518Z,135
2024-04-14T11:50:00.385Z,118
2024-04-14T12:00:00.567Z,96
2024-04-14T12:10:00.513Z,72
2024-04-14T12:20:00.427Z,80
2024-04-14T12:30:00.434Z,77
2024-04-14T12:40:00.524Z,82
2024-04-14T12:50:00.388Z,56
2024-04-14T13:00:00.364Z,67
2024-04-14T13:10:00.445Z,70
2024-04-14T13:20:00.387Z,51
2024-04-14T13:30:00.435Z,49
2024-04-14T13:40:00.461Z,43
2024-04-14T13:50:00.414Z,36
2024-04-14T14:00:00.522Z,41
2024-04-14T14:10:00.531Z,29
2024-04-14T14:20:00.373Z,26
2024-04-14T14:30:00.410Z,33
2024-04-14T14:40:00.511Z,33
2024-04-14T14:50:00.403Z,26
2024-04-14T15:00:00.442Z,38
2024-04-14T15:10:00.412Z,29
2024-04-14T15:20:00.409Z,42
2024-04-14T15:30:00.402Z,53
2024-04-14T15:40:00.519Z,34
2024-04-14T15:50:00.585Z,51
2024-04-14T16:00:00.357Z,63
2024-04-14T16:10:00.728Z,83
2024-04-14T16:20:00.456Z,110
2024-04-14T16:30:00.561Z,87
2024-04-14T16:40:00.495Z,183
2024-04-14T16:50:00.747Z,253
2024-04-14T17:00:00.448Z,276
2024-04-14T17:10:00.584Z,274
2024-04-14T17:20:00.415Z,278
2024-04-14T17:30:00.539Z,285
2024-04-14T17:40:03.451Z,225
2024-04-14T17:50:00.375Z,262
2024-04-14T18:00:00.378Z,262
2024-04-14T18:10:00.473Z,234
2024-04-14T18:20:00.467Z,211
2024-04-14T18:30:00.435Z,203
2024-04-14T18:40:00.398Z,226
2024-04-14T18:50:00.566Z,161
2024-04-14T19:00:00.719Z,223
2024-04-14T19:10:00.427Z,209
2024-04-14T19:20:00.383Z,225
2024-04-14T19:30:00.418Z,238
2024-04-14T19:40:00.443Z,230
2024-04-14T19:50:00.405Z,181
2024-04-14T20:00:00.440Z,226
2024-04-14T20:10:00.451Z,228
2024-04-14T20:20:00.461Z,167
2024-04-14T20:30:00.593Z,214
2024-04-14T20:40:00.599Z,224
2024-04-14T20:50:00.410Z,160
2024-04-14T21:00:00.354Z,210
2024-04-14T21:10:00.384Z,200
2024-04-14T21:20:00.381Z,191
2024-04-14T21:30:00.561Z,208
2024-04-14T21:40:00.422Z,150
2024-04-14T21:50:00.378Z,151
2024-04-14T22:00:00.853Z,161
2024-04-14T22:10:00.483Z,191
2024-04-14T22:20:00.462Z,168
2024-04-14T22:30:00.393Z,209
2024-04-14T22:40:00.522Z,189
2024-04-14T22:50:00.373Z,203
2024-04-14T23:00:00.366Z,185
2024-04-14T23:10:00.493Z,201
2024-04-14T23:20:00.378Z,159
2024-04-14T23:30:00.632Z,201
2024-04-14T23:40:00.432Z,207
2024-04-14T23:50:00.378Z,168
